All In — WDH9649 — position and weather

sailwx.info

Track history (hours):
 
Tides and Currents Weather Stations Pressure Air Temp Water Temp Dewpoint Dewpoint Depression Visibility Wind Speed Wind Dir Waves Ship Positions

All In

Owner: Orr, John M, Port Ludlow, WA. More information available from US FCC via Universal Licensing System.

Last reported at 2018-Jun-08 19:08 UTC. Time now 2018-Jun-25 05:46 UTC.
Position N 50°18' W 125°04'.
Warning: this ship's position is 16 days out of date.

Length 21 m.

Type: Pleasure craft. MMSI: 367670210.

Date/timePositionNaut miles runAvg speedWind from/ knotsBaromVisibWave heightAir tempDewpointWater temp
2018-Jun-08 19:08N 50°18' W 125°04'2 7.7
2018-Jun-08 18:51N 50°17' W 125°02'3 8.6
2018-Jun-08 18:29N 50°14' W 124°59'6 0.1
2018-Jun-06 20:33N 50°11' W 124°50'1 9.2
2018-Jun-06 20:25N 50°11' W 124°52'3 6.2
2018-Jun-06 19:59N 50°08' W 124°53'6 8.7
2018-Jun-06 19:18N 50°02' W 124°54'5 4.4
2018-Jun-06 18:12N 50°04' W 125°01'1 5.6
2018-Jun-06 17:57N 50°05' W 125°01'1 1.3
2018-Jun-06 17:29N 50°06' W 125°01'0 0.0
2018-Jun-06 16:11N 50°06' W 125°01'0 0.0
2018-Jun-06 15:59N 50°06' W 125°01'0 0.0
2018-Jun-06 15:23N 50°06' W 125°01'0 0.0
2018-Jun-06 14:53N 50°06' W 125°01'0 0.0
2018-Jun-06 14:29N 50°06' W 125°01'0 0.0
2018-Jun-06 13:53N 50°06' W 125°01'0 0.0
2018-Jun-06 13:05N 50°06' W 125°01'0 0.0
2018-Jun-06 12:59N 50°06' W 125°01'0 0.0
2018-Jun-06 12:29N 50°06' W 125°01'0 0.0
2018-Jun-06 11:59N 50°06' W 125°01'0 0.0
2018-Jun-06 11:29N 50°06' W 125°01'0 0.0
2018-Jun-06 10:59N 50°06' W 125°01'0 0.0
2018-Jun-06 10:29N 50°06' W 125°01'0 0.0
2018-Jun-06 09:59N 50°06' W 125°01'0 0.0
2018-Jun-06 09:29N 50°06' W 125°01'0 0.0
2018-Jun-06 08:53N 50°06' W 125°01'0 0.0
2018-Jun-06 08:29N 50°06' W 125°01'0 0.0
2018-Jun-06 07:59N 50°06' W 125°01'0 0.0
2018-Jun-06 07:29N 50°06' W 125°01'0 0.0
2018-Jun-06 06:59N 50°06' W 125°01'0 0.0
2018-Jun-06 06:29N 50°06' W 125°01'0 0.0
2018-Jun-06 05:59N 50°06' W 125°01'0 0.0
2018-Jun-06 05:29N 50°06' W 125°01'0 0.0
2018-Jun-06 04:59N 50°06' W 125°01'0 0.0
2018-Jun-06 04:29N 50°06' W 125°01'0 0.0
2018-Jun-06 03:59N 50°06' W 125°01'0 0.0
2018-Jun-06 03:29N 50°06' W 125°01'0 0.0
2018-Jun-06 02:59N 50°06' W 125°01'0 0.0
2018-Jun-06 02:29N 50°06' W 125°01'0 0.0
2018-Jun-06 01:59N 50°06' W 125°01'0 0.0
2018-Jun-06 01:29N 50°06' W 125°01'0 0.0
2018-Jun-06 00:59N 50°06' W 125°01'0 0.0
2018-Jun-06 00:29N 50°06' W 125°01'0 0.0
2018-Jun-05 23:53N 50°06' W 125°01'0 0.0
2018-Jun-05 23:23N 50°06' W 125°01'0 0.0
2018-Jun-05 22:59N 50°06' W 125°01'0 0.0
2018-Jun-05 22:29N 50°06' W 125°01'0 0.0
2018-Jun-05 21:59N 50°06' W 125°01'0 0.0
2018-Jun-05 21:26N 50°06' W 125°01'0 0.0
2018-Jun-05 20:59N 50°06' W 125°01'0 0.0
2018-Jun-05 20:29N 50°06' W 125°01'0 0.0
2018-Jun-05 19:59N 50°06' W 125°01'0 0.0
2018-Jun-05 19:29N 50°06' W 125°01'0 0.0
2018-Jun-05 18:59N 50°06' W 125°01'0 0.0
2018-Jun-05 18:29N 50°06' W 125°01'0 0.0
2018-Jun-05 17:53N 50°06' W 125°01'0 0.0
2018-Jun-05 17:23N 50°06' W 125°01'0 0.0
2018-Jun-05 16:59N 50°06' W 125°01'0 0.0
2018-Jun-05 16:29N 50°06' W 125°01'0 0.0
2018-Jun-05 15:53N 50°06' W 125°01'0 0.0
2018-Jun-05 15:29N 50°06' W 125°01'0 0.0
2018-Jun-05 14:56N 50°06' W 125°01'0 0.0
2018-Jun-05 14:26N 50°06' W 125°01'0 0.0
2018-Jun-05 13:59N 50°06' W 125°01'0 0.0
2018-Jun-05 13:26N 50°06' W 125°01'0 0.0
2018-Jun-05 12:50N 50°06' W 125°01'0 0.0
2018-Jun-05 12:26N 50°06' W 125°01'0 0.0
2018-Jun-05 11:59N 50°06' W 125°01'0 0.0
2018-Jun-05 11:23N 50°06' W 125°01'0 0.0
2018-Jun-05 10:56N 50°06' W 125°01'0 0.0
2018-Jun-05 10:26N 50°06' W 125°01'0 0.0
2018-Jun-05 09:59N 50°06' W 125°01'0 0.0
2018-Jun-05 09:26N 50°06' W 125°01'0 0.0
2018-Jun-05 08:59N 50°06' W 125°01'0 0.0
2018-Jun-05 08:29N 50°06' W 125°01'0 0.0
2018-Jun-05 07:59N 50°06' W 125°01'0 0.0
2018-Jun-05 07:26N 50°06' W 125°01'0 0.0
2018-Jun-05 06:56N 50°06' W 125°01'0 0.0
2018-Jun-05 06:29N 50°06' W 125°01'0 0.0
2018-Jun-05 05:59N 50°06' W 125°01'0 0.0
2018-Jun-05 05:29N 50°06' W 125°01'0 0.0
2018-Jun-05 04:56N 50°06' W 125°01'0 0.0
2018-Jun-05 04:26N 50°06' W 125°01'0 0.0
2018-Jun-05 03:59N 50°06' W 125°01'0 0.0
2018-Jun-05 03:29N 50°06' W 125°01'0 0.0
2018-Jun-05 02:38N 50°06' W 125°01'0 0.0
2018-Jun-05 02:26N 50°06' W 125°01'0 0.0
2018-Jun-05 01:59N 50°06' W 125°01'0 0.0
2018-Jun-05 01:17N 50°06' W 125°01'0 0.0
2018-Jun-05 00:59N 50°06' W 125°01'0 0.0
2018-Jun-05 00:29N 50°06' W 125°01'0 0.0
2018-Jun-04 23:59N 50°06' W 125°01'0 0.0
2018-Jun-04 23:29N 50°06' W 125°01'0 0.0
2018-Jun-04 22:56N 50°06' W 125°01'0 0.0
2018-Jun-04 22:29N 50°06' W 125°01'0 0.0
2018-Jun-04 21:56N 50°06' W 125°01'0 0.0
2018-Jun-04 21:20N 50°06' W 125°01'0 0.0
2018-Jun-04 20:59N 50°06' W 125°01'0 0.0
2018-Jun-04 20:23N 50°06' W 125°01'0 0.0
2018-Jun-04 19:44N 50°06' W 125°01'0 0.0
2018-Jun-04 19:29N 50°06' W 125°01'0 0.0
2018-Jun-04 18:56N 50°06' W 125°01'0 0.0
2018-Jun-04 18:26N 50°06' W 125°01'0 0.0
2018-Jun-04 17:59N 50°06' W 125°01'0 0.0
2018-Jun-04 17:29N 50°06' W 125°01'0 0.0
2018-Jun-04 16:59N 50°06' W 125°01'0 0.0
2018-Jun-04 16:29N 50°06' W 125°01'0 0.0
2018-Jun-04 15:59N 50°06' W 125°01'0 0.0
2018-Jun-04 15:26N 50°06' W 125°01'0 0.0
2018-Jun-04 14:59N 50°06' W 125°01'0 0.0
2018-Jun-04 14:29N 50°06' W 125°01'0 0.0
2018-Jun-04 13:56N 50°06' W 125°01'0 0.0
2018-Jun-04 13:29N 50°06' W 125°01'0 0.0
2018-Jun-04 12:59N 50°06' W 125°01'0 0.0
2018-Jun-04 12:29N 50°06' W 125°01'0 0.0
2018-Jun-04 11:59N 50°06' W 125°01'0 0.0
2018-Jun-04 11:26N 50°06' W 125°01'0 0.0
2018-Jun-04 10:56N 50°06' W 125°01'0 0.0
2018-Jun-04 10:29N 50°06' W 125°01'0 0.0
2018-Jun-04 09:56N 50°06' W 125°01'0 0.0
2018-Jun-04 09:26N 50°06' W 125°01'0 0.0
2018-Jun-04 08:56N 50°06' W 125°01'0 0.0
2018-Jun-04 08:29N 50°06' W 125°01'0 0.0
2018-Jun-04 07:56N 50°06' W 125°01'0 0.0
2018-Jun-04 07:26N 50°06' W 125°01'0 0.0
2018-Jun-04 06:56N 50°06' W 125°01'0 0.0
2018-Jun-04 06:26N 50°06' W 125°01'0 0.0
2018-Jun-04 05:53N 50°06' W 125°01'0 0.0
2018-Jun-04 05:26N 50°06' W 125°01'0 0.0
2018-Jun-04 04:56N 50°06' W 125°01'0 0.0
2018-Jun-04 04:20N 50°06' W 125°01'0 0.0
2018-Jun-04 03:56N 50°06' W 125°01'0 0.0
2018-Jun-04 03:26N 50°06' W 125°01'0 0.0
2018-Jun-04 02:56N 50°06' W 125°01'0 0.0
2018-Jun-04 02:29N 50°06' W 125°01'0 0.0
2018-Jun-04 01:56N 50°06' W 125°01'0 0.0
2018-Jun-04 01:26N 50°06' W 125°01'0 0.0
2018-Jun-04 00:56N 50°06' W 125°01'0 0.0
2018-Jun-04 00:29N 50°06' W 125°01'0 0.0
2018-Jun-03 23:59N 50°06' W 125°01'0 0.0
2018-Jun-03 23:29N 50°06' W 125°01'0 0.0
2018-Jun-03 22:59N 50°06' W 125°01'0 0.0
2018-Jun-03 22:26N 50°06' W 125°01'0 0.0
2018-Jun-03 21:59N 50°06' W 125°01'0 0.0
2018-Jun-03 21:29N 50°06' W 125°01'0 0.0
2018-Jun-03 20:59N 50°06' W 125°01'0 0.0
2018-Jun-03 20:29N 50°06' W 125°01'0 0.0
2018-Jun-03 19:56N 50°06' W 125°01'0 0.0
2018-Jun-03 19:29N 50°06' W 125°01'1 2.7
2018-Jun-03 19:00N 50°05' W 125°01'7 4.1
2018-Jun-03 17:19N 50°04' W 124°50'2 0.4
2018-Jun-03 11:56N 50°04' W 124°47'0 0.0
2018-Jun-03 08:47N 50°04' W 124°47'0 0.0
2018-Jun-03 08:29N 50°04' W 124°47'0 0.0
2018-Jun-03 07:47N 50°04' W 124°47'0 0.0
2018-Jun-01 20:21N 50°04' W 124°47'90 2.7
2018-May-31 11:40N 48°51' W 123°27'  
Track history (hours):
 
Tides and Currents Weather Stations Pressure Air Temp Water Temp Dewpoint Dewpoint Depression Visibility Wind Speed Wind Dir Waves Ship Positions

All In

Owner: Orr, John M, Port Ludlow, WA. More information available from US FCC via Universal Licensing System.

Last reported at 2018-Jun-08 19:08 UTC. Time now 2018-Jun-25 05:46 UTC.
Position N 50°18' W 125°04'.
Warning: this ship's position is 16 days out of date.

Length 21 m.

Type: Pleasure craft. MMSI: 367670210.

Date/timePositionNaut miles runAvg speedWind from/ knotsBaromVisibWave heightAir tempDewpointWater temp
2018-Jun-08 19:08N 50°18' W 125°04'2 7.7
2018-Jun-08 18:51N 50°17' W 125°02'3 8.6
2018-Jun-08 18:29N 50°14' W 124°59'6 0.1
2018-Jun-06 20:33N 50°11' W 124°50'1 9.2
2018-Jun-06 20:25N 50°11' W 124°52'3 6.2
2018-Jun-06 19:59N 50°08' W 124°53'6 8.7
2018-Jun-06 19:18N 50°02' W 124°54'5 4.4
2018-Jun-06 18:12N 50°04' W 125°01'1 5.6
2018-Jun-06 17:57N 50°05' W 125°01'1 1.3
2018-Jun-06 17:29N 50°06' W 125°01'0 0.0
2018-Jun-06 16:11N 50°06' W 125°01'0 0.0
2018-Jun-06 15:59N 50°06' W 125°01'0 0.0
2018-Jun-06 15:23N 50°06' W 125°01'0 0.0
2018-Jun-06 14:53N 50°06' W 125°01'0 0.0
2018-Jun-06 14:29N 50°06' W 125°01'0 0.0
2018-Jun-06 13:53N 50°06' W 125°01'0 0.0
2018-Jun-06 13:05N 50°06' W 125°01'0 0.0
2018-Jun-06 12:59N 50°06' W 125°01'0 0.0
2018-Jun-06 12:29N 50°06' W 125°01'0 0.0
2018-Jun-06 11:59N 50°06' W 125°01'0 0.0
2018-Jun-06 11:29N 50°06' W 125°01'0 0.0
2018-Jun-06 10:59N 50°06' W 125°01'0 0.0
2018-Jun-06 10:29N 50°06' W 125°01'0 0.0
2018-Jun-06 09:59N 50°06' W 125°01'0 0.0
2018-Jun-06 09:29N 50°06' W 125°01'0 0.0
2018-Jun-06 08:53N 50°06' W 125°01'0 0.0
2018-Jun-06 08:29N 50°06' W 125°01'0 0.0
2018-Jun-06 07:59N 50°06' W 125°01'0 0.0
2018-Jun-06 07:29N 50°06' W 125°01'0 0.0
2018-Jun-06 06:59N 50°06' W 125°01'0 0.0
2018-Jun-06 06:29N 50°06' W 125°01'0 0.0
2018-Jun-06 05:59N 50°06' W 125°01'0 0.0
2018-Jun-06 05:29N 50°06' W 125°01'0 0.0
2018-Jun-06 04:59N 50°06' W 125°01'0 0.0
2018-Jun-06 04:29N 50°06' W 125°01'0 0.0
2018-Jun-06 03:59N 50°06' W 125°01'0 0.0
2018-Jun-06 03:29N 50°06' W 125°01'0 0.0
2018-Jun-06 02:59N 50°06' W 125°01'0 0.0
2018-Jun-06 02:29N 50°06' W 125°01'0 0.0
2018-Jun-06 01:59N 50°06' W 125°01'0 0.0
2018-Jun-06 01:29N 50°06' W 125°01'0 0.0
2018-Jun-06 00:59N 50°06' W 125°01'0 0.0
2018-Jun-06 00:29N 50°06' W 125°01'0 0.0
2018-Jun-05 23:53N 50°06' W 125°01'0 0.0
2018-Jun-05 23:23N 50°06' W 125°01'0 0.0
2018-Jun-05 22:59N 50°06' W 125°01'0 0.0
2018-Jun-05 22:29N 50°06' W 125°01'0 0.0
2018-Jun-05 21:59N 50°06' W 125°01'0 0.0
2018-Jun-05 21:26N 50°06' W 125°01'0 0.0
2018-Jun-05 20:59N 50°06' W 125°01'0 0.0
2018-Jun-05 20:29N 50°06' W 125°01'0 0.0
2018-Jun-05 19:59N 50°06' W 125°01'0 0.0
2018-Jun-05 19:29N 50°06' W 125°01'0 0.0
2018-Jun-05 18:59N 50°06' W 125°01'0 0.0
2018-Jun-05 18:29N 50°06' W 125°01'0 0.0
2018-Jun-05 17:53N 50°06' W 125°01'0 0.0
2018-Jun-05 17:23N 50°06' W 125°01'0 0.0
2018-Jun-05 16:59N 50°06' W 125°01'0 0.0
2018-Jun-05 16:29N 50°06' W 125°01'0 0.0
2018-Jun-05 15:53N 50°06' W 125°01'0 0.0
2018-Jun-05 15:29N 50°06' W 125°01'0 0.0
2018-Jun-05 14:56N 50°06' W 125°01'0 0.0
2018-Jun-05 14:26N 50°06' W 125°01'0 0.0
2018-Jun-05 13:59N 50°06' W 125°01'0 0.0
2018-Jun-05 13:26N 50°06' W 125°01'0 0.0
2018-Jun-05 12:50N 50°06' W 125°01'0 0.0
2018-Jun-05 12:26N 50°06' W 125°01'0 0.0
2018-Jun-05 11:59N 50°06' W 125°01'0 0.0
2018-Jun-05 11:23N 50°06' W 125°01'0 0.0
2018-Jun-05 10:56N 50°06' W 125°01'0 0.0
2018-Jun-05 10:26N 50°06' W 125°01'0 0.0
2018-Jun-05 09:59N 50°06' W 125°01'0 0.0
2018-Jun-05 09:26N 50°06' W 125°01'0 0.0
2018-Jun-05 08:59N 50°06' W 125°01'0 0.0
2018-Jun-05 08:29N 50°06' W 125°01'0 0.0
2018-Jun-05 07:59N 50°06' W 125°01'0 0.0
2018-Jun-05 07:26N 50°06' W 125°01'0 0.0
2018-Jun-05 06:56N 50°06' W 125°01'0 0.0
2018-Jun-05 06:29N 50°06' W 125°01'0 0.0
2018-Jun-05 05:59N 50°06' W 125°01'0 0.0
2018-Jun-05 05:29N 50°06' W 125°01'0 0.0
2018-Jun-05 04:56N 50°06' W 125°01'0 0.0
2018-Jun-05 04:26N 50°06' W 125°01'0 0.0
2018-Jun-05 03:59N 50°06' W 125°01'0 0.0
2018-Jun-05 03:29N 50°06' W 125°01'0 0.0
2018-Jun-05 02:38N 50°06' W 125°01'0 0.0
2018-Jun-05 02:26N 50°06' W 125°01'0 0.0
2018-Jun-05 01:59N 50°06' W 125°01'0 0.0
2018-Jun-05 01:17N 50°06' W 125°01'0 0.0
2018-Jun-05 00:59N 50°06' W 125°01'0 0.0
2018-Jun-05 00:29N 50°06' W 125°01'0 0.0
2018-Jun-04 23:59N 50°06' W 125°01'0 0.0
2018-Jun-04 23:29N 50°06' W 125°01'0 0.0
2018-Jun-04 22:56N 50°06' W 125°01'0 0.0
2018-Jun-04 22:29N 50°06' W 125°01'0 0.0
2018-Jun-04 21:56N 50°06' W 125°01'0 0.0
2018-Jun-04 21:20N 50°06' W 125°01'0 0.0
2018-Jun-04 20:59N 50°06' W 125°01'0 0.0
2018-Jun-04 20:23N 50°06' W 125°01'0 0.0
2018-Jun-04 19:44N 50°06' W 125°01'0 0.0
2018-Jun-04 19:29N 50°06' W 125°01'0 0.0
2018-Jun-04 18:56N 50°06' W 125°01'0 0.0
2018-Jun-04 18:26N 50°06' W 125°01'0 0.0
2018-Jun-04 17:59N 50°06' W 125°01'0 0.0
2018-Jun-04 17:29N 50°06' W 125°01'0 0.0
2018-Jun-04 16:59N 50°06' W 125°01'0 0.0
2018-Jun-04 16:29N 50°06' W 125°01'0 0.0
2018-Jun-04 15:59N 50°06' W 125°01'0 0.0
2018-Jun-04 15:26N 50°06' W 125°01'0 0.0
2018-Jun-04 14:59N 50°06' W 125°01'0 0.0
2018-Jun-04 14:29N 50°06' W 125°01'0 0.0
2018-Jun-04 13:56N 50°06' W 125°01'0 0.0
2018-Jun-04 13:29N 50°06' W 125°01'0 0.0
2018-Jun-04 12:59N 50°06' W 125°01'0 0.0
2018-Jun-04 12:29N 50°06' W 125°01'0 0.0
2018-Jun-04 11:59N 50°06' W 125°01'0 0.0
2018-Jun-04 11:26N 50°06' W 125°01'0 0.0
2018-Jun-04 10:56N 50°06' W 125°01'0 0.0
2018-Jun-04 10:29N 50°06' W 125°01'0 0.0
2018-Jun-04 09:56N 50°06' W 125°01'0 0.0
2018-Jun-04 09:26N 50°06' W 125°01'0 0.0
2018-Jun-04 08:56N 50°06' W 125°01'0 0.0
2018-Jun-04 08:29N 50°06' W 125°01'0 0.0
2018-Jun-04 07:56N 50°06' W 125°01'0 0.0
2018-Jun-04 07:26N 50°06' W 125°01'0 0.0
2018-Jun-04 06:56N 50°06' W 125°01'0 0.0
2018-Jun-04 06:26N 50°06' W 125°01'0 0.0
2018-Jun-04 05:53N 50°06' W 125°01'0 0.0
2018-Jun-04 05:26N 50°06' W 125°01'0 0.0
2018-Jun-04 04:56N 50°06' W 125°01'0 0.0
2018-Jun-04 04:20N 50°06' W 125°01'0 0.0
2018-Jun-04 03:56N 50°06' W 125°01'0 0.0
2018-Jun-04 03:26N 50°06' W 125°01'0 0.0
2018-Jun-04 02:56N 50°06' W 125°01'0 0.0
2018-Jun-04 02:29N 50°06' W 125°01'0 0.0
2018-Jun-04 01:56N 50°06' W 125°01'0 0.0
2018-Jun-04 01:26N 50°06' W 125°01'0 0.0
2018-Jun-04 00:56N 50°06' W 125°01'0 0.0
2018-Jun-04 00:29N 50°06' W 125°01'0 0.0
2018-Jun-03 23:59N 50°06' W 125°01'0 0.0
2018-Jun-03 23:29N 50°06' W 125°01'0 0.0
2018-Jun-03 22:59N 50°06' W 125°01'0 0.0
2018-Jun-03 22:26N 50°06' W 125°01'0 0.0
2018-Jun-03 21:59N 50°06' W 125°01'0 0.0
2018-Jun-03 21:29N 50°06' W 125°01'0 0.0
2018-Jun-03 20:59N 50°06' W 125°01'0 0.0
2018-Jun-03 20:29N 50°06' W 125°01'0 0.0
2018-Jun-03 19:56N 50°06' W 125°01'0 0.0
2018-Jun-03 19:29N 50°06' W 125°01'1 2.7
2018-Jun-03 19:00N 50°05' W 125°01'7 4.1
2018-Jun-03 17:19N 50°04' W 124°50'2 0.4
2018-Jun-03 11:56N 50°04' W 124°47'0 0.0
2018-Jun-03 08:47N 50°04' W 124°47'0 0.0
2018-Jun-03 08:29N 50°04' W 124°47'0 0.0
2018-Jun-03 07:47N 50°04' W 124°47'0 0.0
2018-Jun-01 20:21N 50°04' W 124°47'90 2.7
2018-May-31 11:40N 48°51' W 123°27'  

Dump ship's entire track history